createdAt,value
2022-11-16T00:00:06.333Z,89.66
2022-11-16T00:01:05.379Z,90.48
2022-11-16T00:02:05.404Z,89.70
2022-11-16T00:03:05.371Z,89.40
2022-11-16T00:04:05.329Z,89.00
2022-11-16T00:05:05.340Z,89.56
2022-11-16T00:06:05.301Z,89.87
2022-11-16T00:07:05.402Z,89.97
2022-11-16T00:08:05.307Z,90.07
2022-11-16T00:09:05.290Z,90.27
2022-11-16T00:10:05.294Z,90.07
2022-11-16T00:11:05.245Z,90.07
2022-11-16T00:12:05.251Z,90.27
2022-11-16T00:13:05.231Z,90.68
2022-11-16T00:14:05.217Z,90.58
2022-11-16T00:15:05.194Z,90.78
2022-11-16T00:16:05.251Z,90.78
2022-11-16T00:17:05.181Z,90.99
2022-11-16T00:18:05.173Z,90.78
2022-11-16T00:19:05.204Z,90.78
2022-11-16T00:20:05.163Z,90.37
2022-11-16T00:21:05.131Z,90.68
2022-11-16T00:22:05.141Z,90.58
2022-11-16T00:23:05.102Z,90.58
2022-11-16T00:24:05.122Z,91.09
2022-11-16T00:25:05.072Z,90.88
2022-11-16T00:26:05.084Z,91.09
2022-11-16T00:27:05.064Z,90.42
2022-11-16T00:28:05.097Z,90.22
2022-11-16T00:29:05.042Z,90.42
2022-11-16T00:30:05.027Z,90.31
2022-11-16T00:31:05.006Z,89.91
2022-11-16T00:32:05.012Z,89.81
2022-11-16T00:33:04.984Z,90.22
2022-11-16T00:34:05.015Z,90.31
2022-11-16T00:35:04.968Z,90.01
2022-11-16T00:36:04.954Z,90.11
2022-11-16T00:37:04.977Z,90.11
2022-11-16T00:38:04.930Z,90.52
2022-11-16T00:39:04.915Z,90.31
2022-11-16T00:40:04.920Z,90.31
2022-11-16T00:41:04.930Z,89.91
2022-11-16T00:42:04.926Z,90.52
2022-11-16T00:43:04.900Z,90.11
2022-11-16T00:44:04.873Z,90.01
2022-11-16T00:45:04.866Z,90.22
2022-11-16T00:46:04.856Z,90.62
2022-11-16T00:47:04.835Z,90.01
2022-11-16T00:48:04.815Z,90.42
2022-11-16T00:49:04.807Z,89.91
2022-11-16T00:50:04.780Z,90.42
2022-11-16T00:51:04.815Z,90.22
2022-11-16T00:52:04.758Z,90.22
2022-11-16T00:53:04.750Z,90.42
2022-11-16T00:54:04.726Z,89.61
2022-11-16T00:55:04.726Z,89.81
2022-11-16T00:56:04.718Z,90.01
2022-11-16T00:57:04.727Z,89.70
2022-11-16T00:58:04.725Z,89.81
2022-11-16T00:59:04.730Z,89.09
2022-11-16T01:00:04.671Z,88.73
2022-11-16T01:01:04.708Z,88.69
2022-11-16T01:02:04.650Z,89.30
2022-11-16T01:03:04.648Z,88.79
2022-11-16T01:04:04.621Z,89.81
2022-11-16T01:05:04.630Z,88.93
2022-11-16T01:06:04.619Z,89.03
2022-11-16T01:07:04.615Z,87.71
2022-11-16T01:08:04.602Z,88.93
2022-11-16T01:09:04.588Z,88.26
2022-11-16T01:10:04.560Z,87.61
2022-11-16T01:11:04.570Z,88.73
2022-11-16T01:12:04.544Z,88.22
2022-11-16T01:13:04.590Z,88.93
2022-11-16T01:14:04.532Z,88.12
2022-11-16T01:15:05.473Z,89.09
2022-11-16T01:16:04.490Z,89.50
2022-11-16T01:17:04.502Z,89.09
2022-11-16T01:18:04.461Z,88.93
2022-11-16T01:19:04.484Z,88.02
2022-11-16T01:20:04.520Z,87.71
2022-11-16T01:21:04.443Z,88.63
2022-11-16T01:22:04.429Z,89.03
2022-11-16T01:23:04.402Z,88.73
2022-11-16T01:24:04.392Z,89.14
2022-11-16T01:25:04.382Z,88.93
2022-11-16T01:26:04.389Z,89.24
2022-11-16T01:27:04.362Z,89.34
2022-11-16T01:28:04.362Z,88.53
2022-11-16T01:29:04.371Z,88.93
2022-11-16T01:30:04.361Z,89.40
2022-11-16T01:31:04.350Z,89.54
2022-11-16T01:32:04.373Z,89.64
2022-11-16T01:33:04.332Z,89.24
2022-11-16T01:34:04.302Z,88.93
2022-11-16T01:35:04.325Z,89.34
2022-11-16T01:36:04.295Z,89.24
2022-11-16T01:37:04.291Z,89.40
2022-11-16T01:38:04.260Z,89.40
2022-11-16T01:39:04.233Z,89.64
2022-11-16T01:40:04.227Z,89.64
2022-11-16T01:41:04.234Z,89.44
2022-11-16T01:42:04.255Z,90.05
2022-11-16T01:43:04.252Z,88.32
2022-11-16T01:44:04.184Z,88.32
2022-11-16T01:45:04.169Z,87.65
2022-11-16T01:46:04.158Z,88.22
2022-11-16T01:47:04.145Z,88.02
2022-11-16T01:48:04.175Z,88.42
2022-11-16T01:49:04.174Z,88.93
2022-11-16T01:50:04.108Z,88.53
2022-11-16T01:51:04.108Z,88.12
2022-11-16T01:52:04.138Z,88.53
2022-11-16T01:53:04.098Z,88.42
2022-11-16T01:54:04.059Z,87.61
2022-11-16T01:55:04.068Z,88.32
2022-11-16T01:56:04.796Z,88.89
2022-11-16T01:57:04.042Z,88.89
2022-11-16T01:58:04.043Z,89.00
2022-11-16T01:59:04.019Z,89.40
2022-11-16T02:00:04.029Z,89.50
2022-11-16T02:01:04.051Z,89.70
2022-11-16T02:02:03.967Z,88.73
2022-11-16T02:03:03.978Z,88.53
2022-11-16T02:04:03.953Z,88.12
2022-11-16T02:05:03.951Z,89.03
2022-11-16T02:06:03.970Z,87.55
2022-11-16T02:07:03.986Z,88.22
2022-11-16T02:08:03.912Z,88.06
2022-11-16T02:09:03.970Z,87.85
2022-11-16T02:10:03.879Z,88.16
2022-11-16T02:11:03.878Z,88.26
2022-11-16T02:12:03.891Z,87.75
2022-11-16T02:13:03.861Z,88.36
2022-11-16T02:14:03.941Z,87.75
2022-11-16T02:15:03.814Z,88.06
2022-11-16T02:16:03.791Z,87.85
2022-11-16T02:17:03.792Z,87.14
2022-11-16T02:18:03.859Z,88.36
2022-11-16T02:19:03.771Z,87.55
2022-11-16T02:20:03.770Z,87.18
2022-11-16T02:21:03.744Z,86.88
2022-11-16T02:22:03.742Z,87.69
2022-11-16T02:23:03.731Z,87.08
2022-11-16T02:24:03.741Z,85.55
2022-11-16T02:25:03.721Z,87.08
2022-11-16T02:26:03.693Z,87.08
2022-11-16T02:27:03.685Z,86.57
2022-11-16T02:28:03.704Z,87.04
2022-11-16T02:29:03.722Z,87.35
2022-11-16T02:30:03.660Z,87.75
2022-11-16T02:31:03.656Z,88.06
2022-11-16T02:32:03.624Z,88.16
2022-11-16T02:33:03.602Z,88.77
2022-11-16T02:34:03.603Z,87.04
2022-11-16T02:35:03.635Z,87.18
2022-11-16T02:36:03.604Z,86.57
2022-11-16T02:37:03.562Z,86.63
2022-11-16T02:38:03.572Z,88.26
2022-11-16T02:39:03.550Z,88.57
2022-11-16T02:40:03.552Z,88.16
2022-11-16T02:41:03.567Z,87.45
2022-11-16T02:42:03.535Z,89.07
2022-11-16T02:43:03.528Z,87.96
2022-11-16T02:44:03.489Z,87.75
2022-11-16T02:45:03.465Z,86.98
2022-11-16T02:46:03.489Z,87.14
2022-11-16T02:47:03.444Z,87.96
2022-11-16T02:48:03.449Z,87.90
2022-11-16T02:49:03.424Z,87.90
2022-11-16T02:50:03.439Z,86.98
2022-11-16T02:51:03.407Z,87.65
2022-11-16T02:52:03.416Z,88.46
2022-11-16T02:53:03.386Z,89.07
2022-11-16T02:54:03.386Z,89.48
2022-11-16T02:55:03.354Z,88.36
2022-11-16T02:56:03.345Z,88.87
2022-11-16T02:57:03.356Z,88.57
2022-11-16T02:58:03.338Z,88.67
2022-11-16T02:59:03.309Z,89.38
2022-11-16T03:00:03.300Z,88.67
2022-11-16T03:01:03.372Z,88.46
2022-11-16T03:02:03.306Z,90.20
2022-11-16T03:03:03.299Z,88.06
2022-11-16T03:04:03.247Z,88.98
2022-11-16T03:05:03.237Z,89.75
2022-11-16T03:06:03.229Z,89.64
2022-11-16T03:07:03.315Z,89.54
2022-11-16T03:08:03.249Z,89.75
2022-11-16T03:09:03.242Z,89.54
2022-11-16T03:10:03.199Z,89.48
2022-11-16T03:11:03.168Z,88.77
2022-11-16T03:12:03.176Z,90.09
2022-11-16T03:13:03.159Z,89.07
2022-11-16T03:14:03.216Z,88.16
2022-11-16T03:15:03.150Z,88.16
2022-11-16T03:16:03.115Z,88.93
2022-11-16T03:17:03.125Z,89.89
2022-11-16T03:18:03.114Z,88.77
2022-11-16T03:19:03.081Z,88.61
2022-11-16T03:20:03.117Z,88.06
2022-11-16T03:21:03.105Z,88.16
2022-11-16T03:22:03.057Z,88.10
2022-11-16T03:23:03.044Z,88.00
2022-11-16T03:24:03.030Z,87.90
2022-11-16T03:25:03.022Z,88.06
2022-11-16T03:26:03.093Z,88.77
2022-11-16T03:27:02.988Z,87.79
2022-11-16T03:28:02.982Z,87.49
2022-11-16T03:29:02.974Z,87.59
2022-11-16T03:30:02.963Z,87.29
2022-11-16T03:31:02.960Z,87.24
2022-11-16T03:32:02.969Z,88.77
2022-11-16T03:33:02.955Z,87.49
2022-11-16T03:34:02.932Z,85.96
2022-11-16T03:35:02.905Z,86.16
2022-11-16T03:36:02.909Z,86.77
2022-11-16T03:37:02.948Z,86.06
2022-11-16T03:38:02.891Z,85.96
2022-11-16T03:39:02.852Z,85.25
2022-11-16T03:40:02.850Z,86.16
2022-11-16T03:41:02.849Z,86.37
2022-11-16T03:42:02.857Z,86.16
2022-11-16T03:43:02.855Z,86.94
2022-11-16T03:44:02.803Z,87.35
2022-11-16T03:45:02.784Z,87.75
2022-11-16T03:46:02.773Z,88.26
2022-11-16T03:47:02.754Z,87.85
2022-11-16T03:48:02.745Z,86.88
2022-11-16T03:49:02.765Z,86.37
2022-11-16T03:50:02.753Z,85.82
2022-11-16T03:51:02.716Z,86.77
2022-11-16T03:52:02.704Z,86.53
2022-11-16T03:53:02.687Z,87.04
2022-11-16T03:54:02.675Z,87.35
2022-11-16T03:55:02.717Z,87.35
2022-11-16T03:56:02.754Z,87.85
2022-11-16T03:57:02.664Z,87.24
2022-11-16T03:58:02.634Z,86.94
2022-11-16T03:59:02.637Z,86.94
2022-11-16T04:00:02.613Z,87.35
2022-11-16T04:01:02.759Z,85.55
2022-11-16T04:02:02.587Z,84.64
2022-11-16T04:03:02.653Z,85.66
2022-11-16T04:04:02.576Z,84.43
2022-11-16T04:05:02.555Z,84.27
2022-11-16T04:06:02.584Z,82.94
2022-11-16T04:07:02.628Z,81.62
2022-11-16T04:08:02.534Z,84.12
2022-11-16T04:09:02.546Z,83.82
2022-11-16T04:10:02.509Z,84.74
2022-11-16T04:11:02.486Z,84.03
2022-11-16T04:12:02.488Z,84.74
2022-11-16T04:13:02.502Z,81.41
2022-11-16T04:14:06.609Z,81.99
2022-11-16T04:15:03.447Z,82.29
2022-11-16T04:16:02.443Z,83.42
2022-11-16T04:17:02.426Z,82.60
2022-11-16T04:18:02.448Z,83.62
2022-11-16T04:19:02.399Z,82.54
2022-11-16T04:20:02.463Z,81.31
2022-11-16T04:21:02.380Z,78.70
2022-11-16T04:22:02.365Z,78.91
2022-11-16T04:23:02.358Z,79.68
2022-11-16T04:24:02.469Z,78.91
2022-11-16T04:25:02.336Z,78.30
2022-11-16T04:26:02.318Z,79.52
2022-11-16T04:27:02.345Z,80.33
2022-11-16T04:28:02.300Z,78.30
2022-11-16T04:29:02.290Z,79.11
2022-11-16T04:30:02.311Z,80.33
2022-11-16T04:31:02.290Z,79.93
2022-11-16T04:32:02.257Z,76.97
2022-11-16T04:33:02.240Z,76.97
2022-11-16T04:34:02.241Z,80.09
2022-11-16T04:35:02.213Z,81.62
2022-11-16T04:36:02.232Z,79.58
2022-11-16T04:37:02.211Z,80.40
2022-11-16T04:38:02.191Z,80.70
2022-11-16T04:39:02.268Z,81.11
2022-11-16T04:40:02.170Z,78.66
2022-11-16T04:41:02.173Z,80.13
2022-11-16T04:42:02.142Z,78.39
2022-11-16T04:43:02.136Z,78.77
2022-11-16T04:44:02.186Z,81.31
2022-11-16T04:45:02.104Z,80.19
2022-11-16T04:46:02.102Z,80.29
2022-11-16T04:47:02.103Z,80.40
2022-11-16T04:48:02.077Z,81.52
2022-11-16T04:49:02.058Z,79.17
2022-11-16T04:50:02.055Z,80.13
2022-11-16T04:51:02.045Z,79.58
2022-11-16T04:52:02.051Z,81.17
2022-11-16T04:53:02.035Z,81.82
2022-11-16T04:54:02.004Z,79.99
2022-11-16T04:55:02.031Z,81.41
2022-11-16T04:56:01.976Z,82.03
2022-11-16T04:57:01.984Z,79.79
2022-11-16T04:58:02.002Z,78.66
2022-11-16T04:59:01.974Z,80.19
2022-11-16T05:00:01.942Z,80.19
2022-11-16T05:01:02.045Z,81.82
2022-11-16T05:02:01.913Z,79.68
2022-11-16T05:03:02.051Z,79.32
2022-11-16T05:04:01.928Z,77.48
2022-11-16T05:05:01.926Z,79.52
2022-11-16T05:06:01.888Z,79.27
2022-11-16T05:07:02.019Z,79.99
2022-11-16T05:08:01.854Z,80.29
2022-11-16T05:09:01.840Z,80.70
2022-11-16T05:10:01.893Z,81.21
2022-11-16T05:11:01.838Z,81.31
2022-11-16T05:12:01.809Z,82.13
2022-11-16T05:13:01.817Z,81.93
2022-11-16T05:14:01.775Z,79.99
2022-11-16T05:15:01.796Z,81.31
2022-11-16T05:16:02.029Z,81.04
2022-11-16T05:17:02.750Z,78.30
2022-11-16T05:18:01.823Z,78.80
2022-11-16T05:19:01.720Z,79.52
2022-11-16T05:20:01.713Z,78.70
2022-11-16T05:21:01.778Z,79.21
2022-11-16T05:22:01.779Z,78.19
2022-11-16T05:23:01.689Z,78.39
2022-11-16T05:24:01.851Z,76.87
2022-11-16T05:25:01.742Z,78.39
2022-11-16T05:26:01.743Z,77.89
2022-11-16T05:27:01.689Z,77.98
2022-11-16T05:28:01.693Z,76.25
2022-11-16T05:29:01.966Z,77.98
2022-11-16T05:30:01.657Z,78.09
2022-11-16T05:31:01.611Z,79.48
2022-11-16T05:32:01.642Z,81.41
2022-11-16T05:33:01.618Z,82.13
2022-11-16T05:34:01.605Z,79.99
2022-11-16T05:35:01.593Z,78.77
2022-11-16T05:36:01.578Z,80.13
2022-11-16T05:37:01.568Z,78.70
2022-11-16T05:38:01.502Z,78.09
2022-11-16T05:39:01.560Z,76.87
2022-11-16T05:40:01.492Z,77.07
2022-11-16T05:41:01.483Z,78.56
2022-11-16T05:42:01.463Z,79.48
2022-11-16T05:43:01.457Z,80.80
2022-11-16T05:44:01.452Z,79.11
2022-11-16T05:45:01.485Z,78.60
2022-11-16T05:46:01.444Z,79.00
2022-11-16T05:47:01.415Z,76.97
2022-11-16T05:48:01.397Z,77.48
2022-11-16T05:49:01.397Z,77.03
2022-11-16T05:50:01.411Z,78.66
2022-11-16T05:51:01.395Z,79.64
2022-11-16T05:52:01.345Z,80.70
2022-11-16T05:53:01.345Z,78.77
2022-11-16T05:54:01.329Z,80.26
2022-11-16T05:55:01.319Z,81.88
2022-11-16T05:56:01.339Z,80.56
2022-11-16T05:57:01.337Z,80.05
2022-11-16T05:58:01.288Z,82.09
2022-11-16T05:59:01.316Z,79.79
2022-11-16T06:00:01.273Z,78.77
2022-11-16T06:01:01.255Z,82.19
2022-11-16T06:02:01.247Z,79.54
2022-11-16T06:03:01.404Z,80.36
2022-11-16T06:04:01.209Z,80.26
2022-11-16T06:05:01.211Z,81.27
2022-11-16T06:06:01.216Z,80.77
2022-11-16T06:07:01.214Z,81.68
2022-11-16T06:08:01.167Z,80.87
2022-11-16T06:09:01.175Z,80.97
2022-11-16T06:10:01.148Z,79.07
2022-11-16T06:11:01.140Z,79.68
2022-11-16T06:12:01.146Z,79.44
2022-11-16T06:13:01.112Z,79.95
2022-11-16T06:14:01.148Z,81.38
2022-11-16T06:15:01.088Z,81.65
2022-11-16T06:16:01.091Z,83.58
2022-11-16T06:17:01.068Z,83.13
2022-11-16T06:18:01.100Z,83.17
2022-11-16T06:19:01.073Z,83.95
2022-11-16T06:20:01.095Z,83.74
2022-11-16T06:21:01.037Z,83.64
2022-11-16T06:22:01.029Z,84.66
2022-11-16T06:23:01.020Z,84.56
2022-11-16T06:24:01.001Z,84.97
2022-11-16T06:25:00.986Z,83.78
2022-11-16T06:26:01.001Z,83.17
2022-11-16T06:27:00.961Z,82.29
2022-11-16T06:28:05.309Z,80.87
2022-11-16T06:29:01.985Z,79.95
2022-11-16T06:30:00.913Z,80.36
2022-11-16T06:31:00.936Z,80.16
2022-11-16T06:32:00.929Z,79.85
2022-11-16T06:33:00.891Z,78.63
2022-11-16T06:34:00.932Z,78.42
2022-11-16T06:35:00.876Z,80.11
2022-11-16T06:36:00.864Z,80.22
2022-11-16T06:37:00.862Z,80.32
2022-11-16T06:38:00.853Z,82.35
2022-11-16T06:39:00.822Z,78.83
2022-11-16T06:40:00.825Z,77.40
2022-11-16T06:41:00.787Z,80.46
2022-11-16T06:42:00.783Z,79.10
2022-11-16T06:43:00.792Z,79.91
2022-11-16T06:44:00.754Z,81.40
2022-11-16T06:45:00.759Z,82.42
2022-11-16T06:46:00.735Z,80.93
2022-11-16T06:47:00.732Z,80.22
2022-11-16T06:48:00.754Z,80.73
2022-11-16T06:49:00.725Z,77.30
2022-11-16T06:50:00.694Z,78.42
2022-11-16T06:51:00.674Z,77.00
2022-11-16T06:52:00.664Z,77.98
2022-11-16T06:53:00.654Z,79.10
2022-11-16T06:54:00.679Z,82.15
2022-11-16T06:55:00.645Z,79.14
2022-11-16T06:56:00.641Z,78.53
2022-11-16T06:57:00.608Z,78.19
2022-11-16T06:58:00.607Z,79.20
2022-11-16T06:59:00.590Z,78.49
2022-11-16T07:00:00.610Z,78.69
2022-11-16T07:01:00.575Z,80.32
2022-11-16T07:02:00.632Z,79.50
2022-11-16T07:03:00.536Z,80.93
2022-11-16T07:04:00.577Z,79.41
2022-11-16T07:05:03.494Z,79.10
2022-11-16T07:06:00.538Z,79.81
2022-11-16T07:07:00.543Z,80.52
2022-11-16T07:08:00.476Z,78.63
2022-11-16T07:09:00.490Z,78.28
2022-11-16T07:10:00.471Z,77.87
2022-11-16T07:11:04.142Z,78.89
2022-11-16T07:12:00.460Z,79.88
2022-11-16T07:13:00.431Z,80.18
2022-11-16T07:14:00.433Z,81.30
2022-11-16T07:15:00.409Z,79.41
2022-11-16T07:16:00.411Z,80.42
2022-11-16T07:17:02.859Z,77.91
2022-11-16T07:18:00.391Z,75.67
2022-11-16T07:19:00.359Z,77.78
2022-11-16T07:20:00.359Z,75.74
2022-11-16T07:21:00.328Z,78.66
2022-11-16T07:22:00.319Z,78.86
2022-11-16T07:23:00.332Z,78.45
2022-11-16T07:24:00.459Z,79.47
2022-11-16T07:25:00.280Z,80.99
2022-11-16T07:26:00.311Z,79.98
2022-11-16T07:27:00.271Z,81.30
2022-11-16T07:28:00.260Z,78.28
2022-11-16T07:29:00.297Z,79.77
2022-11-16T07:30:00.221Z,79.57
2022-11-16T07:31:00.220Z,80.08
2022-11-16T07:32:00.200Z,79.47
2022-11-16T07:33:00.214Z,79.63
2022-11-16T07:34:00.194Z,79.06
2022-11-16T07:35:00.223Z,79.63
2022-11-16T07:36:00.171Z,79.53
2022-11-16T07:37:00.152Z,81.63
2022-11-16T07:38:00.165Z,81.46
2022-11-16T07:39:00.132Z,79.94
2022-11-16T07:40:00.175Z,79.13
2022-11-16T07:41:00.130Z,79.63
2022-11-16T07:42:00.102Z,76.48
2022-11-16T07:43:00.077Z,78.62
2022-11-16T07:44:00.094Z,80.51
2022-11-16T07:45:00.072Z,80.65
2022-11-16T07:46:21.436Z,79.43
2022-11-16T07:47:01.033Z,78.62
2022-11-16T07:48:00.023Z,78.62
2022-11-16T07:49:00.026Z,77.60
2022-11-16T07:50:00.002Z,79.60
2022-11-16T07:50:59.985Z,80.51
2022-11-16T07:52:00.003Z,81.73
2022-11-16T07:52:59.986Z,79.53
2022-11-16T07:53:59.957Z,80.82
2022-11-16T07:54:59.946Z,81.84
2022-11-16T07:55:59.926Z,80.04
2022-11-16T07:56:59.975Z,79.13
2022-11-16T07:57:59.906Z,79.68
2022-11-16T07:58:59.921Z,77.91
2022-11-16T07:59:59.881Z,79.02
2022-11-16T08:00:59.876Z,78.92
2022-11-16T08:01:59.933Z,80.11
2022-11-16T08:02:59.889Z,80.82
2022-11-16T08:03:59.847Z,82.18
2022-11-16T08:04:59.827Z,81.12
2022-11-16T08:05:59.825Z,80.51
2022-11-16T08:06:59.916Z,81.53
2022-11-16T08:07:59.836Z,81.53
2022-11-16T08:08:59.806Z,83.62
2022-11-16T08:09:59.836Z,80.82
2022-11-16T08:10:59.787Z,82.10
2022-11-16T08:11:59.756Z,83.73
2022-11-16T08:12:59.746Z,83.22
2022-11-16T08:13:59.727Z,83.53
2022-11-16T08:14:59.746Z,83.08
2022-11-16T08:15:59.719Z,83.79
2022-11-16T08:16:59.698Z,84.30
2022-11-16T08:17:59.695Z,84.87
2022-11-16T08:18:59.699Z,84.16
2022-11-16T08:19:59.704Z,84.46
2022-11-16T08:20:59.639Z,84.87
2022-11-16T08:21:59.629Z,84.66
2022-11-16T08:22:59.660Z,85.98
2022-11-16T08:23:59.610Z,83.34
2022-11-16T08:24:59.613Z,83.34
2022-11-16T08:25:59.650Z,84.42
2022-11-16T08:26:59.579Z,83.85
2022-11-16T08:27:59.580Z,83.54
2022-11-16T08:28:59.561Z,84.05
2022-11-16T08:29:59.551Z,84.36
2022-11-16T08:30:59.535Z,82.12
2022-11-16T08:31:59.533Z,84.22
2022-11-16T08:32:59.528Z,84.26
2022-11-16T08:33:59.502Z,84.72
2022-11-16T08:34:59.512Z,84.83
2022-11-16T08:35:59.485Z,84.42
2022-11-16T08:36:59.507Z,87.22
2022-11-16T08:37:59.462Z,85.44
2022-11-16T08:38:59.462Z,85.90
2022-11-16T08:39:59.442Z,85.33
2022-11-16T08:40:59.425Z,86.37
2022-11-16T08:41:59.413Z,88.03
2022-11-16T08:42:59.821Z,87.16
2022-11-16T08:43:59.383Z,87.12
2022-11-16T08:44:59.384Z,88.03
2022-11-16T08:45:59.354Z,86.76
2022-11-16T08:46:59.353Z,86.31
2022-11-16T08:48:03.974Z,88.23
2022-11-16T08:49:00.385Z,87.02
2022-11-16T08:49:59.348Z,87.73
2022-11-16T08:51:16.988Z,85.38
2022-11-16T08:52:00.298Z,84.16
2022-11-16T08:52:59.306Z,84.93
2022-11-16T08:53:59.285Z,88.28
2022-11-16T08:54:59.300Z,87.37
2022-11-16T08:55:59.277Z,86.55
2022-11-16T08:56:59.286Z,87.16
2022-11-16T08:57:59.250Z,87.63
2022-11-16T08:58:59.533Z,88.95
2022-11-16T08:59:59.264Z,88.75
2022-11-16T09:00:59.227Z,89.55
2022-11-16T09:01:59.226Z,87.97
2022-11-16T09:02:59.167Z,88.07
2022-11-16T09:03:59.165Z,87.67
2022-11-16T09:04:59.146Z,88.44
2022-11-16T09:05:59.158Z,87.97
2022-11-16T09:06:59.200Z,87.97
2022-11-16T09:07:59.113Z,89.70
2022-11-16T09:08:59.110Z,87.77
2022-11-16T09:09:59.098Z,87.57
2022-11-16T09:10:59.168Z,88.07
2022-11-16T09:11:59.075Z,87.71
2022-11-16T09:12:59.073Z,88.07
2022-11-16T09:13:59.066Z,87.87
2022-11-16T09:14:59.047Z,88.18
2022-11-16T09:15:59.029Z,88.99
2022-11-16T09:16:59.091Z,90.31
2022-11-16T09:17:59.012Z,89.09
2022-11-16T09:18:58.989Z,90.67
2022-11-16T09:19:58.980Z,89.13
2022-11-16T09:20:58.969Z,87.92
2022-11-16T09:21:58.970Z,88.68
2022-11-16T09:22:58.975Z,90.81
2022-11-16T09:23:58.950Z,90.14
2022-11-16T09:24:58.944Z,90.25
2022-11-16T09:25:58.930Z,90.61
2022-11-16T09:26:58.910Z,91.08
2022-11-16T09:27:58.919Z,90.86
2022-11-16T09:28:58.913Z,90.35
2022-11-16T09:29:58.881Z,90.97
2022-11-16T09:30:58.887Z,91.48
2022-11-16T09:31:58.845Z,91.48
2022-11-16T09:32:58.841Z,91.89
2022-11-16T09:33:59.070Z,89.96
2022-11-16T09:34:58.842Z,89.55
2022-11-16T09:35:58.823Z,90.32
2022-11-16T09:36:58.812Z,92.86
2022-11-16T09:37:58.781Z,91.28
2022-11-16T09:39:29.590Z,89.96
2022-11-16T09:39:59.843Z,90.77
2022-11-16T09:40:58.751Z,90.11
2022-11-16T09:41:58.734Z,88.95
2022-11-16T09:42:58.723Z,89.01
2022-11-16T09:43:58.718Z,90.64
2022-11-16T09:44:58.718Z,91.86
2022-11-16T09:45:58.725Z,91.96
2022-11-16T09:46:58.686Z,91.60
2022-11-16T09:47:58.686Z,93.67
2022-11-16T09:48:58.655Z,92.76
2022-11-16T09:50:03.187Z,93.22
2022-11-16T09:50:59.665Z,93.27
2022-11-16T09:51:58.624Z,93.88
2022-11-16T09:52:58.632Z,94.03
2022-11-16T09:53:58.640Z,92.65
2022-11-16T09:54:58.580Z,92.71
2022-11-16T09:55:58.751Z,93.18
2022-11-16T09:56:58.609Z,94.19
2022-11-16T09:57:58.553Z,94.09
2022-11-16T09:58:58.542Z,94.43
2022-11-16T09:59:58.535Z,93.87
2022-11-16T10:00:58.613Z,92.29
2022-11-16T10:01:58.530Z,92.76
2022-11-16T10:02:58.509Z,94.07
2022-11-16T10:03:58.490Z,94.68
2022-11-16T10:04:58.850Z,93.00
2022-11-16T10:05:58.469Z,93.77
2022-11-16T10:06:58.488Z,93.46
2022-11-16T10:07:58.467Z,94.29
2022-11-16T10:08:58.439Z,93.18
2022-11-16T10:09:58.440Z,93.58
2022-11-16T10:10:58.427Z,94.10
2022-11-16T10:11:58.406Z,94.56
2022-11-16T10:12:58.388Z,94.36
2022-11-16T10:14:03.827Z,94.96
2022-11-16T10:14:59.360Z,94.66
2022-11-16T10:15:58.354Z,95.27
2022-11-16T10:16:58.349Z,94.76
2022-11-16T10:17:58.331Z,95.67
2022-11-16T10:18:58.331Z,96.64
2022-11-16T10:19:58.330Z,96.80
2022-11-16T10:20:58.300Z,97.14
2022-11-16T10:21:58.293Z,95.67
2022-11-16T10:22:58.271Z,95.93
2022-11-16T10:23:58.260Z,95.83
2022-11-16T10:24:58.281Z,96.29
2022-11-16T10:25:58.231Z,97.00
2022-11-16T10:26:58.233Z,96.44
2022-11-16T10:27:58.241Z,96.63
2022-11-16T10:28:58.213Z,96.18
2022-11-16T10:29:58.185Z,96.78
2022-11-16T10:30:58.222Z,96.64
2022-11-16T10:31:58.166Z,96.69
2022-11-16T10:32:58.175Z,97.03
2022-11-16T10:33:58.142Z,96.22
2022-11-16T10:34:58.153Z,95.66
2022-11-16T10:35:58.174Z,96.17
2022-11-16T10:36:58.164Z,95.62
2022-11-16T10:37:58.165Z,96.63
2022-11-16T10:38:58.087Z,97.03
2022-11-16T10:39:58.113Z,96.88
2022-11-16T10:40:58.085Z,96.88
2022-11-16T10:42:01.003Z,97.03
2022-11-16T10:42:59.086Z,98.19
2022-11-16T10:43:58.047Z,97.44
2022-11-16T10:44:58.045Z,96.53
2022-11-16T10:45:58.085Z,93.79
2022-11-16T10:46:58.002Z,86.05
2022-11-16T10:47:58.011Z,80.55
2022-11-16T10:48:57.976Z,85.82
2022-11-16T10:49:57.955Z,87.34
2022-11-16T10:50:57.950Z,92.71
2022-11-16T10:51:57.928Z,96.66
2022-11-16T10:52:57.928Z,96.92
2022-11-16T10:53:57.956Z,97.28
2022-11-16T10:54:57.898Z,96.63
2022-11-16T10:55:57.887Z,95.11
2022-11-16T10:56:57.882Z,87.12
2022-11-16T10:57:57.868Z,87.05
2022-11-16T10:58:57.852Z,84.89
2022-11-16T10:59:57.861Z,80.98
2022-11-16T11:00:57.892Z,82.20
2022-11-16T11:01:57.818Z,81.18
2022-11-16T11:02:57.840Z,82.44
2022-11-16T11:03:57.800Z,82.56
2022-11-16T11:04:57.844Z,83.58
2022-11-16T11:05:57.818Z,78.05
2022-11-16T11:06:57.849Z,81.29
2022-11-16T11:07:59.710Z,78.33
2022-11-16T11:08:57.777Z,79.03
2022-11-16T11:09:57.759Z,83.39
2022-11-16T11:10:57.753Z,81.39
2022-11-16T11:11:57.766Z,78.52
2022-11-16T11:12:57.728Z,76.70
2022-11-16T11:13:57.727Z,74.47
2022-11-16T11:14:57.682Z,75.58
2022-11-16T11:15:57.704Z,75.75
2022-11-16T11:16:57.693Z,72.01
2022-11-16T11:17:57.663Z,78.14
2022-11-16T11:18:57.653Z,78.44
2022-11-16T11:19:57.792Z,71.13
2022-11-16T11:20:57.603Z,70.76
2022-11-16T11:21:57.594Z,73.79
2022-11-16T11:22:57.606Z,72.21
2022-11-16T11:24:10.862Z,75.62
2022-11-16T11:24:58.561Z,77.34
2022-11-16T11:25:57.554Z,76.59
2022-11-16T11:26:57.556Z,75.71
2022-11-16T11:27:57.577Z,77.94
2022-11-16T11:28:57.524Z,78.95
2022-11-16T11:29:57.524Z,84.51
2022-11-16T11:30:57.487Z,88.35
2022-11-16T11:31:57.483Z,91.08
2022-11-16T11:32:57.465Z,93.35
2022-11-16T11:33:57.465Z,94.26
2022-11-16T11:34:57.455Z,95.27
2022-11-16T11:35:57.441Z,95.11
2022-11-16T11:36:57.436Z,94.91
2022-11-16T11:37:57.405Z,95.36
2022-11-16T11:38:57.396Z,95.97
2022-11-16T11:39:57.448Z,95.97
2022-11-16T11:40:57.375Z,95.72
2022-11-16T11:41:57.358Z,95.27
2022-11-16T11:42:57.329Z,95.72
2022-11-16T11:43:57.351Z,96.22
2022-11-16T11:44:57.321Z,96.66
2022-11-16T11:45:57.338Z,97.42
2022-11-16T11:47:42.227Z,97.52
2022-11-16T11:47:59.568Z,97.38
2022-11-16T11:48:57.276Z,97.11
2022-11-16T11:49:57.276Z,97.47
2022-11-16T11:50:57.280Z,97.27
2022-11-16T11:51:57.252Z,97.62
2022-11-16T11:52:57.240Z,97.72
2022-11-16T11:53:57.242Z,97.72
2022-11-16T11:54:57.243Z,97.32
2022-11-16T11:55:57.200Z,97.11
2022-11-16T11:56:57.211Z,97.22
2022-11-16T11:57:57.173Z,97.32
2022-11-16T11:58:57.190Z,96.91
2022-11-16T11:59:57.169Z,96.77
2022-11-16T12:00:57.140Z,97.52
2022-11-16T12:01:57.143Z,97.02
2022-11-16T12:02:57.217Z,96.51
2022-11-16T12:03:57.120Z,96.77
2022-11-16T12:04:57.134Z,97.32
2022-11-16T12:05:57.082Z,97.06
2022-11-16T12:06:57.152Z,97.47
2022-11-16T12:07:57.072Z,97.22
2022-11-16T12:08:57.081Z,96.81
2022-11-16T12:09:57.062Z,97.06
2022-11-16T12:10:57.034Z,97.11
2022-11-16T12:11:57.014Z,97.22
2022-11-16T12:12:57.012Z,96.36
2022-11-16T12:13:56.994Z,96.26
2022-11-16T12:14:57.006Z,96.86
2022-11-16T12:15:56.977Z,97.36
2022-11-16T12:16:57.012Z,97.02
2022-11-16T12:17:56.962Z,97.22
2022-11-16T12:18:56.983Z,97.26
2022-11-16T12:19:56.980Z,97.26
2022-11-16T12:20:56.934Z,97.06
2022-11-16T12:21:56.905Z,96.30
2022-11-16T12:23:02.587Z,96.15
2022-11-16T12:23:57.919Z,96.46
2022-11-16T12:24:56.884Z,95.75
2022-11-16T12:25:56.910Z,96.51
2022-11-16T12:26:56.869Z,96.56
2022-11-16T12:27:56.856Z,96.04
2022-11-16T12:28:56.853Z,96.30
2022-11-16T12:29:56.856Z,95.65
2022-11-16T12:30:56.790Z,95.65
2022-11-16T12:31:56.867Z,94.90
2022-11-16T12:32:56.764Z,93.68
2022-11-16T12:33:56.806Z,93.97
2022-11-16T12:34:56.765Z,94.74
2022-11-16T12:35:56.737Z,94.34
2022-11-16T12:36:57.466Z,94.84
2022-11-16T12:37:56.756Z,95.35
2022-11-16T12:38:56.718Z,94.84
2022-11-16T12:39:56.744Z,95.65
2022-11-16T12:40:56.678Z,95.75
2022-11-16T12:41:56.716Z,95.45
2022-11-16T12:42:56.690Z,96.04
2022-11-16T12:43:56.669Z,96.80
2022-11-16T12:44:56.628Z,97.51
2022-11-16T12:45:56.658Z,97.20
2022-11-16T12:46:56.762Z,97.11
2022-11-16T12:47:56.671Z,97.36
2022-11-16T12:48:56.611Z,96.96
2022-11-16T12:49:56.601Z,96.90
2022-11-16T12:50:56.569Z,97.61
2022-11-16T12:51:56.559Z,97.45